sensor_id;sensor_type;location;lat;lon;timestamp;P1;durP1;ratioP1;P2;durP2;ratioP2
9102;SDS011;4587;51.434;6.788;2023-04-03T00:00:41;7.40;;;5.87;;
9102;SDS011;4587;51.434;6.788;2023-04-03T00:03:06;11.37;;;6.27;;
9102;SDS011;4587;51.434;6.788;2023-04-03T00:05:33;8.57;;;6.33;;
9102;SDS011;4587;51.434;6.788;2023-04-03T00:07:58;8.03;;;5.40;;
9102;SDS011;4587;51.434;6.788;2023-04-03T00:10:28;8.70;;;6.20;;
9102;SDS011;4587;51.434;6.788;2023-04-03T00:12:54;9.40;;;6.13;;
9102;SDS011;4587;51.434;6.788;2023-04-03T00:15:19;11.17;;;5.93;;
9102;SDS011;4587;51.434;6.788;2023-04-03T00:17:45;8.53;;;6.50;;
9102;SDS011;4587;51.434;6.788;2023-04-03T00:20:11;10.77;;;6.13;;
9102;SDS011;4587;51.434;6.788;2023-04-03T00:22:36;8.17;;;6.07;;
9102;SDS011;4587;51.434;6.788;2023-04-03T00:25:03;9.27;;;6.33;;
9102;SDS011;4587;51.434;6.788;2023-04-03T00:27:29;8.13;;;6.20;;
9102;SDS011;4587;51.434;6.788;2023-04-03T00:29:54;10.27;;;6.73;;
9102;SDS011;4587;51.434;6.788;2023-04-03T00:32:20;9.70;;;6.83;;
9102;SDS011;4587;51.434;6.788;2023-04-03T00:34:46;8.67;;;6.50;;
9102;SDS011;4587;51.434;6.788;2023-04-03T00:37:11;7.77;;;5.97;;
9102;SDS011;4587;51.434;6.788;2023-04-03T00:39:37;10.27;;;6.27;;
9102;SDS011;4587;51.434;6.788;2023-04-03T00:42:03;9.97;;;6.67;;
9102;SDS011;4587;51.434;6.788;2023-04-03T00:47:00;9.07;;;6.50;;
9102;SDS011;4587;51.434;6.788;2023-04-03T00:49:28;8.27;;;6.27;;
9102;SDS011;4587;51.434;6.788;2023-04-03T00:51:54;10.07;;;6.57;;
9102;SDS011;4587;51.434;6.788;2023-04-03T00:54:22;8.17;;;6.23;;
9102;SDS011;4587;51.434;6.788;2023-04-03T00:56:47;11.50;;;6.40;;
9102;SDS011;4587;51.434;6.788;2023-04-03T00:59:20;11.73;;;6.63;;
9102;SDS011;4587;51.434;6.788;2023-04-03T01:01:50;10.13;;;6.53;;
9102;SDS011;4587;51.434;6.788;2023-04-03T01:04:29;9.00;;;7.13;;
9102;SDS011;4587;51.434;6.788;2023-04-03T01:09:45;8.73;;;7.20;;
9102;SDS011;4587;51.434;6.788;2023-04-03T01:12:23;9.33;;;6.93;;
9102;SDS011;4587;51.434;6.788;2023-04-03T01:14:54;11.27;;;7.20;;
9102;SDS011;4587;51.434;6.788;2023-04-03T01:22:42;14.53;;;9.17;;
9102;SDS011;4587;51.434;6.788;2023-04-03T01:25:09;13.60;;;8.63;;
9102;SDS011;4587;51.434;6.788;2023-04-03T01:27:35;10.87;;;7.80;;
9102;SDS011;4587;51.434;6.788;2023-04-03T01:30:00;12.07;;;8.17;;
9102;SDS011;4587;51.434;6.788;2023-04-03T01:32:27;10.30;;;8.17;;
9102;SDS011;4587;51.434;6.788;2023-04-03T01:34:53;11.27;;;7.70;;
9102;SDS011;4587;51.434;6.788;2023-04-03T01:37:18;11.13;;;8.00;;
9102;SDS011;4587;51.434;6.788;2023-04-03T01:39:44;12.77;;;7.70;;
9102;SDS011;4587;51.434;6.788;2023-04-03T01:42:10;11.23;;;7.47;;
9102;SDS011;4587;51.434;6.788;2023-04-03T01:44:36;11.23;;;7.80;;
9102;SDS011;4587;51.434;6.788;2023-04-03T01:47:02;9.80;;;6.93;;
9102;SDS011;4587;51.434;6.788;2023-04-03T01:49:32;9.97;;;7.00;;
9102;SDS011;4587;51.434;6.788;2023-04-03T01:51:58;11.57;;;7.30;;
9102;SDS011;4587;51.434;6.788;2023-04-03T01:54:23;9.73;;;6.33;;
9102;SDS011;4587;51.434;6.788;2023-04-03T01:56:50;8.47;;;6.20;;
9102;SDS011;4587;51.434;6.788;2023-04-03T01:59:16;9.97;;;5.70;;
9102;SDS011;4587;51.434;6.788;2023-04-03T02:01:43;10.50;;;6.00;;
9102;SDS011;4587;51.434;6.788;2023-04-03T02:04:10;9.63;;;6.10;;
9102;SDS011;4587;51.434;6.788;2023-04-03T02:06:36;10.17;;;5.57;;
9102;SDS011;4587;51.434;6.788;2023-04-03T02:09:02;10.13;;;5.80;;
9102;SDS011;4587;51.434;6.788;2023-04-03T02:11:29;9.67;;;5.93;;
9102;SDS011;4587;51.434;6.788;2023-04-03T02:13:55;8.23;;;5.47;;
9102;SDS011;4587;51.434;6.788;2023-04-03T02:16:20;9.57;;;5.53;;
9102;SDS011;4587;51.434;6.788;2023-04-03T02:18:46;8.60;;;5.90;;
9102;SDS011;4587;51.434;6.788;2023-04-03T02:21:12;8.07;;;5.60;;
9102;SDS011;4587;51.434;6.788;2023-04-03T02:23:37;8.57;;;5.60;;
9102;SDS011;4587;51.434;6.788;2023-04-03T02:26:07;7.83;;;5.17;;
9102;SDS011;4587;51.434;6.788;2023-04-03T02:28:34;10.57;;;5.90;;
9102;SDS011;4587;51.434;6.788;2023-04-03T02:31:01;9.07;;;5.27;;
9102;SDS011;4587;51.434;6.788;2023-04-03T02:33:27;7.47;;;5.20;;
9102;SDS011;4587;51.434;6.788;2023-04-03T02:35:56;8.13;;;5.03;;
9102;SDS011;4587;51.434;6.788;2023-04-03T02:38:22;6.93;;;4.70;;
9102;SDS011;4587;51.434;6.788;2023-04-03T02:40:48;9.63;;;5.10;;
9102;SDS011;4587;51.434;6.788;2023-04-03T02:43:15;6.37;;;4.60;;
9102;SDS011;4587;51.434;6.788;2023-04-03T02:45:40;8.00;;;4.73;;
9102;SDS011;4587;51.434;6.788;2023-04-03T02:48:06;9.33;;;4.70;;
9102;SDS011;4587;51.434;6.788;2023-04-03T02:50:32;8.97;;;4.50;;
9102;SDS011;4587;51.434;6.788;2023-04-03T02:52:57;6.23;;;4.40;;
9102;SDS011;4587;51.434;6.788;2023-04-03T02:55:23;6.67;;;4.50;;
9102;SDS011;4587;51.434;6.788;2023-04-03T02:57:49;7.07;;;4.17;;
9102;SDS011;4587;51.434;6.788;2023-04-03T03:00:14;7.33;;;4.20;;
9102;SDS011;4587;51.434;6.788;2023-04-03T03:02:40;7.93;;;3.90;;
9102;SDS011;4587;51.434;6.788;2023-04-03T03:05:06;6.13;;;3.83;;
9102;SDS011;4587;51.434;6.788;2023-04-03T03:07:32;6.30;;;3.80;;
9102;SDS011;4587;51.434;6.788;2023-04-03T03:09:58;5.43;;;3.53;;
9102;SDS011;4587;51.434;6.788;2023-04-03T03:12:24;6.53;;;3.63;;
9102;SDS011;4587;51.434;6.788;2023-04-03T03:14:50;6.40;;;3.50;;
9102;SDS011;4587;51.434;6.788;2023-04-03T03:17:16;5.17;;;3.40;;
9102;SDS011;4587;51.434;6.788;2023-04-03T03:19:42;5.03;;;3.40;;
9102;SDS011;4587;51.434;6.788;2023-04-03T03:22:08;6.03;;;3.77;;
9102;SDS011;4587;51.434;6.788;2023-04-03T03:24:34;5.50;;;3.33;;
9102;SDS011;4587;51.434;6.788;2023-04-03T03:26:59;7.27;;;3.20;;
9102;SDS011;4587;51.434;6.788;2023-04-03T03:29:25;7.83;;;3.57;;
9102;SDS011;4587;51.434;6.788;2023-04-03T03:31:51;7.10;;;3.50;;
9102;SDS011;4587;51.434;6.788;2023-04-03T03:34:17;6.23;;;3.30;;
9102;SDS011;4587;51.434;6.788;2023-04-03T03:36:42;4.27;;;3.10;;
9102;SDS011;4587;51.434;6.788;2023-04-03T03:39:08;5.90;;;3.30;;
9102;SDS011;4587;51.434;6.788;2023-04-03T03:41:34;9.77;;;3.50;;
9102;SDS011;4587;51.434;6.788;2023-04-03T03:44:00;4.97;;;2.93;;
9102;SDS011;4587;51.434;6.788;2023-04-03T03:46:26;5.37;;;3.03;;
9102;SDS011;4587;51.434;6.788;2023-04-03T03:48:52;6.17;;;2.73;;
9102;SDS011;4587;51.434;6.788;2023-04-03T03:51:17;7.37;;;3.00;;
9102;SDS011;4587;51.434;6.788;2023-04-03T03:53:43;4.20;;;2.80;;
9102;SDS011;4587;51.434;6.788;2023-04-03T03:56:09;7.37;;;3.00;;
9102;SDS011;4587;51.434;6.788;2023-04-03T03:58:38;5.10;;;2.63;;
9102;SDS011;4587;51.434;6.788;2023-04-03T04:01:04;5.33;;;2.83;;
9102;SDS011;4587;51.434;6.788;2023-04-03T04:03:31;5.87;;;3.27;;
9102;SDS011;4587;51.434;6.788;2023-04-03T04:05:57;2.87;;;2.27;;
9102;SDS011;4587;51.434;6.788;2023-04-03T04:08:23;6.43;;;2.80;;
9102;SDS011;4587;51.434;6.788;2023-04-03T04:10:49;4.67;;;2.73;;
9102;SDS011;4587;51.434;6.788;2023-04-03T04:13:15;5.40;;;2.67;;
9102;SDS011;4587;51.434;6.788;2023-04-03T04:15:42;5.33;;;2.60;;
9102;SDS011;4587;51.434;6.788;2023-04-03T04:18:08;6.67;;;2.73;;
9102;SDS011;4587;51.434;6.788;2023-04-03T04:20:33;4.33;;;2.40;;
9102;SDS011;4587;51.434;6.788;2023-04-03T04:22:59;5.27;;;2.70;;
9102;SDS011;4587;51.434;6.788;2023-04-03T04:25:25;5.53;;;2.70;;
9102;SDS011;4587;51.434;6.788;2023-04-03T04:27:50;6.23;;;3.13;;
9102;SDS011;4587;51.434;6.788;2023-04-03T04:30:16;6.37;;;3.13;;
9102;SDS011;4587;51.434;6.788;2023-04-03T04:32:42;7.17;;;2.73;;
9102;SDS011;4587;51.434;6.788;2023-04-03T04:35:08;4.90;;;2.80;;
9102;SDS011;4587;51.434;6.788;2023-04-03T04:37:34;4.93;;;2.43;;
9102;SDS011;4587;51.434;6.788;2023-04-03T04:40:00;6.00;;;2.60;;
9102;SDS011;4587;51.434;6.788;2023-04-03T04:42:26;5.43;;;2.70;;
9102;SDS011;4587;51.434;6.788;2023-04-03T04:44:52;4.97;;;2.53;;
9102;SDS011;4587;51.434;6.788;2023-04-03T04:47:18;4.53;;;2.00;;
9102;SDS011;4587;51.434;6.788;2023-04-03T04:49:43;6.73;;;2.33;;
9102;SDS011;4587;51.434;6.788;2023-04-03T04:52:10;5.73;;;2.60;;
9102;SDS011;4587;51.434;6.788;2023-04-03T04:54:35;6.17;;;2.50;;
9102;SDS011;4587;51.434;6.788;2023-04-03T04:57:01;7.27;;;2.40;;
9102;SDS011;4587;51.434;6.788;2023-04-03T04:59:30;4.83;;;2.50;;
9102;SDS011;4587;51.434;6.788;2023-04-03T05:01:55;4.47;;;2.40;;
9102;SDS011;4587;51.434;6.788;2023-04-03T05:04:21;8.13;;;2.90;;
9102;SDS011;4587;51.434;6.788;2023-04-03T05:06:47;4.87;;;2.40;;
9102;SDS011;4587;51.434;6.788;2023-04-03T05:09:12;7.57;;;2.40;;
9102;SDS011;4587;51.434;6.788;2023-04-03T05:11:38;6.80;;;2.70;;
9102;SDS011;4587;51.434;6.788;2023-04-03T05:14:04;6.50;;;2.30;;
9102;SDS011;4587;51.434;6.788;2023-04-03T05:16:33;5.77;;;3.00;;
9102;SDS011;4587;51.434;6.788;2023-04-03T05:18:59;5.63;;;2.40;;
9102;SDS011;4587;51.434;6.788;2023-04-03T05:21:24;7.00;;;2.70;;
9102;SDS011;4587;51.434;6.788;2023-04-03T05:23:52;6.17;;;2.60;;
9102;SDS011;4587;51.434;6.788;2023-04-03T05:26:18;7.07;;;2.80;;
9102;SDS011;4587;51.434;6.788;2023-04-03T05:28:44;7.53;;;2.73;;
9102;SDS011;4587;51.434;6.788;2023-04-03T05:31:09;7.77;;;2.93;;
9102;SDS011;4587;51.434;6.788;2023-04-03T05:33:35;6.23;;;2.97;;
9102;SDS011;4587;51.434;6.788;2023-04-03T05:36:04;5.83;;;2.87;;
9102;SDS011;4587;51.434;6.788;2023-04-03T05:38:30;6.33;;;2.67;;
9102;SDS011;4587;51.434;6.788;2023-04-03T05:40:56;8.40;;;2.80;;
9102;SDS011;4587;51.434;6.788;2023-04-03T05:43:22;7.30;;;2.73;;
9102;SDS011;4587;51.434;6.788;2023-04-03T05:45:48;6.27;;;3.07;;
9102;SDS011;4587;51.434;6.788;2023-04-03T05:48:13;7.03;;;2.90;;
9102;SDS011;4587;51.434;6.788;2023-04-03T05:50:39;7.23;;;2.70;;
9102;SDS011;4587;51.434;6.788;2023-04-03T05:53:06;9.40;;;3.13;;
9102;SDS011;4587;51.434;6.788;2023-04-03T05:55:38;4.87;;;2.97;;
9102;SDS011;4587;51.434;6.788;2023-04-03T05:58:04;7.77;;;3.10;;
9102;SDS011;4587;51.434;6.788;2023-04-03T06:00:33;6.50;;;3.13;;
9102;SDS011;4587;51.434;6.788;2023-04-03T06:02:58;6.07;;;2.90;;
9102;SDS011;4587;51.434;6.788;2023-04-03T06:05:24;7.07;;;3.33;;
9102;SDS011;4587;51.434;6.788;2023-04-03T06:07:50;7.90;;;3.17;;
9102;SDS011;4587;51.434;6.788;2023-04-03T06:10:15;6.50;;;3.20;;
9102;SDS011;4587;51.434;6.788;2023-04-03T06:12:42;6.23;;;2.87;;
9102;SDS011;4587;51.434;6.788;2023-04-03T06:15:08;7.57;;;3.50;;
9102;SDS011;4587;51.434;6.788;2023-04-03T06:17:35;10.03;;;3.07;;
9102;SDS011;4587;51.434;6.788;2023-04-03T06:20:02;10.33;;;3.20;;
9102;SDS011;4587;51.434;6.788;2023-04-03T06:22:29;11.77;;;3.20;;
9102;SDS011;4587;51.434;6.788;2023-04-03T06:24:56;5.90;;;3.00;;
9102;SDS011;4587;51.434;6.788;2023-04-03T06:27:22;6.23;;;2.70;;
9102;SDS011;4587;51.434;6.788;2023-04-03T06:29:48;7.30;;;2.97;;
9102;SDS011;4587;51.434;6.788;2023-04-03T06:32:14;6.23;;;2.63;;
9102;SDS011;4587;51.434;6.788;2023-04-03T06:34:41;8.07;;;2.70;;
9102;SDS011;4587;51.434;6.788;2023-04-03T06:37:10;7.13;;;2.77;;
9102;SDS011;4587;51.434;6.788;2023-04-03T06:39:39;6.57;;;2.93;;
9102;SDS011;4587;51.434;6.788;2023-04-03T06:42:05;7.30;;;2.90;;
9102;SDS011;4587;51.434;6.788;2023-04-03T06:44:31;5.87;;;2.90;;
9102;SDS011;4587;51.434;6.788;2023-04-03T06:46:58;5.57;;;2.67;;
9102;SDS011;4587;51.434;6.788;2023-04-03T06:49:24;6.37;;;2.63;;
9102;SDS011;4587;51.434;6.788;2023-04-03T06:51:50;5.13;;;2.20;;
9102;SDS011;4587;51.434;6.788;2023-04-03T06:54:16;5.57;;;2.80;;
9102;SDS011;4587;51.434;6.788;2023-04-03T06:56:43;5.03;;;2.40;;
9102;SDS011;4587;51.434;6.788;2023-04-03T06:59:12;5.07;;;2.50;;
9102;SDS011;4587;51.434;6.788;2023-04-03T07:01:39;7.07;;;2.53;;
9102;SDS011;4587;51.434;6.788;2023-04-03T07:04:05;5.83;;;2.63;;
9102;SDS011;4587;51.434;6.788;2023-04-03T07:06:31;4.00;;;2.50;;
9102;SDS011;4587;51.434;6.788;2023-04-03T07:08:58;6.53;;;2.33;;
9102;SDS011;4587;51.434;6.788;2023-04-03T07:11:24;8.00;;;2.50;;
9102;SDS011;4587;51.434;6.788;2023-04-03T07:13:51;8.00;;;2.80;;
9102;SDS011;4587;51.434;6.788;2023-04-03T07:16:17;6.43;;;2.50;;
9102;SDS011;4587;51.434;6.788;2023-04-03T07:18:43;6.23;;;2.07;;
9102;SDS011;4587;51.434;6.788;2023-04-03T07:21:09;5.23;;;2.30;;
9102;SDS011;4587;51.434;6.788;2023-04-03T07:23:34;8.67;;;2.70;;
9102;SDS011;4587;51.434;6.788;2023-04-03T07:26:00;6.60;;;2.63;;
9102;SDS011;4587;51.434;6.788;2023-04-03T07:28:26;4.73;;;2.37;;
9102;SDS011;4587;51.434;6.788;2023-04-03T07:30:53;4.93;;;2.47;;
9102;SDS011;4587;51.434;6.788;2023-04-03T07:33:24;5.13;;;2.57;;
9102;SDS011;4587;51.434;6.788;2023-04-03T07:35:51;7.37;;;2.70;;
9102;SDS011;4587;51.434;6.788;2023-04-03T07:38:17;5.80;;;2.53;;
9102;SDS011;4587;51.434;6.788;2023-04-03T07:40:46;5.83;;;2.67;;
9102;SDS011;4587;51.434;6.788;2023-04-03T07:43:13;5.73;;;2.80;;
9102;SDS011;4587;51.434;6.788;2023-04-03T07:45:39;4.43;;;2.57;;
9102;SDS011;4587;51.434;6.788;2023-04-03T07:48:07;5.40;;;2.63;;
9102;SDS011;4587;51.434;6.788;2023-04-03T07:50:32;4.90;;;2.50;;
9102;SDS011;4587;51.434;6.788;2023-04-03T07:52:58;5.57;;;2.60;;
9102;SDS011;4587;51.434;6.788;2023-04-03T07:55:27;6.27;;;2.90;;
9102;SDS011;4587;51.434;6.788;2023-04-03T07:57:53;4.73;;;2.30;;
9102;SDS011;4587;51.434;6.788;2023-04-03T08:00:19;4.60;;;2.53;;
9102;SDS011;4587;51.434;6.788;2023-04-03T08:02:45;6.20;;;2.40;;
9102;SDS011;4587;51.434;6.788;2023-04-03T08:05:17;7.20;;;2.27;;
9102;SDS011;4587;51.434;6.788;2023-04-03T08:07:43;9.07;;;2.70;;
9102;SDS011;4587;51.434;6.788;2023-04-03T08:10:09;5.17;;;2.47;;
9102;SDS011;4587;51.434;6.788;2023-04-03T08:12:35;6.60;;;2.33;;
9102;SDS011;4587;51.434;6.788;2023-04-03T08:15:02;4.17;;;2.20;;
9102;SDS011;4587;51.434;6.788;2023-04-03T08:17:28;4.43;;;2.13;;
9102;SDS011;4587;51.434;6.788;2023-04-03T08:19:54;4.33;;;2.50;;
9102;SDS011;4587;51.434;6.788;2023-04-03T08:22:19;5.23;;;2.30;;
9102;SDS011;4587;51.434;6.788;2023-04-03T08:24:45;6.60;;;2.43;;
9102;SDS011;4587;51.434;6.788;2023-04-03T08:27:11;5.07;;;2.10;;
9102;SDS011;4587;51.434;6.788;2023-04-03T08:29:37;4.53;;;2.20;;
9102;SDS011;4587;51.434;6.788;2023-04-03T08:32:03;4.67;;;2.00;;
9102;SDS011;4587;51.434;6.788;2023-04-03T08:34:29;5.40;;;2.17;;
9102;SDS011;4587;51.434;6.788;2023-04-03T08:36:55;5.57;;;2.07;;
9102;SDS011;4587;51.434;6.788;2023-04-03T08:39:24;3.40;;;1.97;;
9102;SDS011;4587;51.434;6.788;2023-04-03T08:41:50;5.17;;;2.00;;
9102;SDS011;4587;51.434;6.788;2023-04-03T08:52:15;5.53;;;1.97;;
9102;SDS011;4587;51.434;6.788;2023-04-03T08:57:47;3.47;;;1.80;;
9102;SDS011;4587;51.434;6.788;2023-04-03T09:00:18;5.17;;;1.83;;
9102;SDS011;4587;51.434;6.788;2023-04-03T09:02:49;4.23;;;1.67;;
9102;SDS011;4587;51.434;6.788;2023-04-03T09:05:26;4.33;;;1.67;;
9102;SDS011;4587;51.434;6.788;2023-04-03T09:10:40;8.23;;;1.60;;
9102;SDS011;4587;51.434;6.788;2023-04-03T09:13:17;4.57;;;1.83;;
9102;SDS011;4587;51.434;6.788;2023-04-03T09:15:52;2.97;;;1.57;;
9102;SDS011;4587;51.434;6.788;2023-04-03T09:18:30;3.77;;;1.60;;
9102;SDS011;4587;51.434;6.788;2023-04-03T09:21:13;4.63;;;1.63;;
9102;SDS011;4587;51.434;6.788;2023-04-03T09:23:51;3.87;;;1.50;;
9102;SDS011;4587;51.434;6.788;2023-04-03T09:26:37;4.33;;;1.60;;
9102;SDS011;4587;51.434;6.788;2023-04-03T09:29:19;3.47;;;1.40;;
9102;SDS011;4587;51.434;6.788;2023-04-03T09:31:50;3.30;;;1.27;;
9102;SDS011;4587;51.434;6.788;2023-04-03T09:36:56;2.50;;;1.00;;
9102;SDS011;4587;51.434;6.788;2023-04-03T09:39:47;2.43;;;0.90;;
9102;SDS011;4587;51.434;6.788;2023-04-03T09:42:19;2.60;;;1.10;;
9102;SDS011;4587;51.434;6.788;2023-04-03T09:44:54;3.00;;;1.10;;
9102;SDS011;4587;51.434;6.788;2023-04-03T09:52:38;2.93;;;1.00;;
9102;SDS011;4587;51.434;6.788;2023-04-03T09:55:06;2.50;;;1.10;;
9102;SDS011;4587;51.434;6.788;2023-04-03T09:57:38;2.03;;;1.00;;
9102;SDS011;4587;51.434;6.788;2023-04-03T10:00:04;2.40;;;1.13;;
9102;SDS011;4587;51.434;6.788;2023-04-03T10:02:35;2.20;;;1.23;;
9102;SDS011;4587;51.434;6.788;2023-04-03T10:05:02;3.33;;;0.90;;
9102;SDS011;4587;51.434;6.788;2023-04-03T10:07:38;2.00;;;0.90;;
9102;SDS011;4587;51.434;6.788;2023-04-03T10:10:20;2.97;;;1.00;;
9102;SDS011;4587;51.434;6.788;2023-04-03T10:13:07;2.47;;;1.10;;
9102;SDS011;4587;51.434;6.788;2023-04-03T10:15:45;3.93;;;1.10;;
9102;SDS011;4587;51.434;6.788;2023-04-03T10:21:02;1.77;;;1.00;;
9102;SDS011;4587;51.434;6.788;2023-04-03T10:23:38;3.20;;;1.00;;
9102;SDS011;4587;51.434;6.788;2023-04-03T10:29:05;2.60;;;1.20;;
9102;SDS011;4587;51.434;6.788;2023-04-03T10:31:50;3.80;;;1.10;;
9102;SDS011;4587;51.434;6.788;2023-04-03T10:34:37;3.03;;;1.03;;
9102;SDS011;4587;51.434;6.788;2023-04-03T10:37:23;1.67;;;0.93;;
9102;SDS011;4587;51.434;6.788;2023-04-03T10:42:31;3.67;;;1.30;;
9102;SDS011;4587;51.434;6.788;2023-04-03T10:45:01;4.53;;;1.20;;
9102;SDS011;4587;51.434;6.788;2023-04-03T10:50:47;2.63;;;1.23;;
9102;SDS011;4587;51.434;6.788;2023-04-03T10:58:44;2.43;;;1.20;;
9102;SDS011;4587;51.434;6.788;2023-04-03T11:01:18;2.37;;;1.00;;
9102;SDS011;4587;51.434;6.788;2023-04-03T11:03:56;3.40;;;1.10;;
9102;SDS011;4587;51.434;6.788;2023-04-03T11:06:24;3.10;;;1.20;;
9102;SDS011;4587;51.434;6.788;2023-04-03T11:09:07;2.40;;;1.20;;
9102;SDS011;4587;51.434;6.788;2023-04-03T11:11:40;3.07;;;1.20;;
9102;SDS011;4587;51.434;6.788;2023-04-03T11:14:23;3.73;;;1.20;;
9102;SDS011;4587;51.434;6.788;2023-04-03T11:19:57;2.00;;;1.20;;
9102;SDS011;4587;51.434;6.788;2023-04-03T11:22:27;2.70;;;1.27;;
9102;SDS011;4587;51.434;6.788;2023-04-03T11:25:09;5.37;;;1.20;;
9102;SDS011;4587;51.434;6.788;2023-04-03T11:30:07;4.33;;;1.30;;
9102;SDS011;4587;51.434;6.788;2023-04-03T11:35:28;2.27;;;1.20;;
9102;SDS011;4587;51.434;6.788;2023-04-03T11:37:55;3.80;;;1.63;;
9102;SDS011;4587;51.434;6.788;2023-04-03T11:40:26;4.40;;;1.40;;
9102;SDS011;4587;51.434;6.788;2023-04-03T11:46:19;6.33;;;1.57;;
9102;SDS011;4587;51.434;6.788;2023-04-03T11:48:42;4.27;;;1.50;;
9102;SDS011;4587;51.434;6.788;2023-04-03T11:53:41;4.53;;;1.40;;
9102;SDS011;4587;51.434;6.788;2023-04-03T12:04:13;3.20;;;1.40;;
9102;SDS011;4587;51.434;6.788;2023-04-03T12:06:47;2.83;;;1.27;;
9102;SDS011;4587;51.434;6.788;2023-04-03T12:14:51;1.80;;;1.37;;
9102;SDS011;4587;51.434;6.788;2023-04-03T12:17:20;4.43;;;1.43;;
9102;SDS011;4587;51.434;6.788;2023-04-03T12:19:51;2.23;;;1.07;;
9102;SDS011;4587;51.434;6.788;2023-04-03T12:22:17;3.03;;;1.23;;
9102;SDS011;4587;51.434;6.788;2023-04-03T12:24:46;4.03;;;1.10;;
9102;SDS011;4587;51.434;6.788;2023-04-03T12:27:25;2.80;;;1.50;;
9102;SDS011;4587;51.434;6.788;2023-04-03T12:45:47;1.97;;;1.10;;
9102;SDS011;4587;51.434;6.788;2023-04-03T12:51:13;3.07;;;1.10;;
9102;SDS011;4587;51.434;6.788;2023-04-03T12:53:42;1.93;;;1.33;;
9102;SDS011;4587;51.434;6.788;2023-04-03T12:58:56;3.63;;;1.10;;
9102;SDS011;4587;51.434;6.788;2023-04-03T13:02:00;2.37;;;1.37;;
9102;SDS011;4587;51.434;6.788;2023-04-03T13:04:28;2.07;;;1.00;;
9102;SDS011;4587;51.434;6.788;2023-04-03T13:06:56;2.37;;;1.30;;
9102;SDS011;4587;51.434;6.788;2023-04-03T13:09:26;3.23;;;1.50;;
9102;SDS011;4587;51.434;6.788;2023-04-03T13:11:57;2.37;;;1.10;;
9102;SDS011;4587;51.434;6.788;2023-04-03T13:14:24;4.37;;;1.23;;
9102;SDS011;4587;51.434;6.788;2023-04-03T13:17:14;3.80;;;1.43;;
9102;SDS011;4587;51.434;6.788;2023-04-03T13:19:40;4.17;;;1.20;;
9102;SDS011;4587;51.434;6.788;2023-04-03T13:24:45;3.53;;;1.40;;
9102;SDS011;4587;51.434;6.788;2023-04-03T13:27:13;3.37;;;1.30;;
9102;SDS011;4587;51.434;6.788;2023-04-03T13:29:39;3.77;;;1.30;;
9102;SDS011;4587;51.434;6.788;2023-04-03T13:32:05;3.67;;;0.97;;
9102;SDS011;4587;51.434;6.788;2023-04-03T13:34:37;2.40;;;1.10;;
9102;SDS011;4587;51.434;6.788;2023-04-03T13:37:05;4.20;;;1.20;;
9102;SDS011;4587;51.434;6.788;2023-04-03T13:39:37;2.03;;;1.00;;
9102;SDS011;4587;51.434;6.788;2023-04-03T13:42:17;3.07;;;1.47;;
9102;SDS011;4587;51.434;6.788;2023-04-03T13:44:48;1.87;;;1.20;;
9102;SDS011;4587;51.434;6.788;2023-04-03T13:47:16;1.90;;;1.23;;
9102;SDS011;4587;51.434;6.788;2023-04-03T13:49:46;6.30;;;1.33;;
9102;SDS011;4587;51.434;6.788;2023-04-03T13:52:38;2.23;;;1.10;;
9102;SDS011;4587;51.434;6.788;2023-04-03T13:57:52;3.50;;;1.63;;
9102;SDS011;4587;51.434;6.788;2023-04-03T14:00:26;3.10;;;1.30;;
9102;SDS011;4587;51.434;6.788;2023-04-03T14:02:56;2.33;;;1.20;;
9102;SDS011;4587;51.434;6.788;2023-04-03T14:05:22;2.70;;;1.27;;
9102;SDS011;4587;51.434;6.788;2023-04-03T14:07:50;2.83;;;1.20;;
9102;SDS011;4587;51.434;6.788;2023-04-03T14:10:16;3.07;;;1.20;;
9102;SDS011;4587;51.434;6.788;2023-04-03T14:12:42;3.53;;;0.97;;
9102;SDS011;4587;51.434;6.788;2023-04-03T14:15:20;3.17;;;1.40;;
9102;SDS011;4587;51.434;6.788;2023-04-03T14:17:49;2.67;;;1.10;;
9102;SDS011;4587;51.434;6.788;2023-04-03T14:20:17;3.93;;;1.20;;
9102;SDS011;4587;51.434;6.788;2023-04-03T14:22:45;3.37;;;1.10;;
9102;SDS011;4587;51.434;6.788;2023-04-03T14:25:12;1.90;;;1.20;;
9102;SDS011;4587;51.434;6.788;2023-04-03T14:27:42;2.97;;;1.17;;
9102;SDS011;4587;51.434;6.788;2023-04-03T14:30:18;3.03;;;1.30;;
9102;SDS011;4587;51.434;6.788;2023-04-03T14:32:49;3.50;;;1.20;;
9102;SDS011;4587;51.434;6.788;2023-04-03T14:35:16;3.53;;;1.10;;
9102;SDS011;4587;51.434;6.788;2023-04-03T14:37:43;2.77;;;1.30;;
9102;SDS011;4587;51.434;6.788;2023-04-03T14:40:12;2.57;;;1.10;;
9102;SDS011;4587;51.434;6.788;2023-04-03T14:42:41;3.53;;;1.20;;
9102;SDS011;4587;51.434;6.788;2023-04-03T14:45:09;3.00;;;1.10;;
9102;SDS011;4587;51.434;6.788;2023-04-03T14:47:39;2.90;;;1.50;;
9102;SDS011;4587;51.434;6.788;2023-04-03T14:50:26;2.57;;;1.30;;
9102;SDS011;4587;51.434;6.788;2023-04-03T14:52:53;4.00;;;1.40;;
9102;SDS011;4587;51.434;6.788;2023-04-03T14:55:22;2.90;;;1.33;;
9102;SDS011;4587;51.434;6.788;2023-04-03T14:57:49;4.47;;;1.40;;
9102;SDS011;4587;51.434;6.788;2023-04-03T15:00:16;3.37;;;1.47;;
9102;SDS011;4587;51.434;6.788;2023-04-03T15:02:43;3.80;;;1.23;;
9102;SDS011;4587;51.434;6.788;2023-04-03T15:05:10;3.17;;;1.10;;
9102;SDS011;4587;51.434;6.788;2023-04-03T15:12:40;3.37;;;1.10;;
9102;SDS011;4587;51.434;6.788;2023-04-03T15:15:06;2.00;;;1.10;;
9102;SDS011;4587;51.434;6.788;2023-04-03T15:17:32;1.90;;;1.23;;
9102;SDS011;4587;51.434;6.788;2023-04-03T15:20:00;4.30;;;1.30;;
9102;SDS011;4587;51.434;6.788;2023-04-03T15:22:26;1.83;;;0.93;;
9102;SDS011;4587;51.434;6.788;2023-04-03T15:24:53;2.67;;;1.10;;
9102;SDS011;4587;51.434;6.788;2023-04-03T15:27:18;3.27;;;1.27;;
9102;SDS011;4587;51.434;6.788;2023-04-03T15:29:44;4.30;;;1.57;;
9102;SDS011;4587;51.434;6.788;2023-04-03T15:32:11;3.93;;;1.53;;
9102;SDS011;4587;51.434;6.788;2023-04-03T15:34:37;2.43;;;1.23;;
9102;SDS011;4587;51.434;6.788;2023-04-03T15:37:04;3.93;;;1.30;;
9102;SDS011;4587;51.434;6.788;2023-04-03T15:39:30;3.60;;;1.40;;
9102;SDS011;4587;51.434;6.788;2023-04-03T15:41:56;3.73;;;1.20;;
9102;SDS011;4587;51.434;6.788;2023-04-03T15:44:30;3.73;;;1.13;;
9102;SDS011;4587;51.434;6.788;2023-04-03T15:46:57;2.37;;;1.30;;
9102;SDS011;4587;51.434;6.788;2023-04-03T15:49:23;4.20;;;1.10;;
9102;SDS011;4587;51.434;6.788;2023-04-03T15:51:49;3.70;;;1.40;;
9102;SDS011;4587;51.434;6.788;2023-04-03T15:54:16;3.63;;;1.17;;
9102;SDS011;4587;51.434;6.788;2023-04-03T15:56:41;4.27;;;1.47;;
9102;SDS011;4587;51.434;6.788;2023-04-03T15:59:07;4.63;;;1.30;;
9102;SDS011;4587;51.434;6.788;2023-04-03T16:01:33;2.67;;;1.33;;
9102;SDS011;4587;51.434;6.788;2023-04-03T16:03:59;5.17;;;1.30;;
9102;SDS011;4587;51.434;6.788;2023-04-03T16:06:25;3.77;;;1.30;;
9102;SDS011;4587;51.434;6.788;2023-04-03T16:08:54;2.17;;;1.33;;
9102;SDS011;4587;51.434;6.788;2023-04-03T16:11:23;2.17;;;1.20;;
9102;SDS011;4587;51.434;6.788;2023-04-03T16:13:49;2.57;;;1.17;;
9102;SDS011;4587;51.434;6.788;2023-04-03T16:16:15;4.83;;;1.60;;
9102;SDS011;4587;51.434;6.788;2023-04-03T16:18:40;4.90;;;1.40;;
9102;SDS011;4587;51.434;6.788;2023-04-03T16:21:06;3.73;;;1.70;;
9102;SDS011;4587;51.434;6.788;2023-04-03T16:23:33;2.90;;;1.40;;
9102;SDS011;4587;51.434;6.788;2023-04-03T16:25:59;4.23;;;1.50;;
9102;SDS011;4587;51.434;6.788;2023-04-03T16:28:25;5.67;;;1.57;;
9102;SDS011;4587;51.434;6.788;2023-04-03T16:30:51;2.60;;;1.57;;
9102;SDS011;4587;51.434;6.788;2023-04-03T16:33:16;3.47;;;1.50;;
9102;SDS011;4587;51.434;6.788;2023-04-03T16:35:42;4.00;;;1.57;;
9102;SDS011;4587;51.434;6.788;2023-04-03T16:38:09;3.30;;;1.70;;
9102;SDS011;4587;51.434;6.788;2023-04-03T16:40:35;3.03;;;1.57;;
9102;SDS011;4587;51.434;6.788;2023-04-03T16:43:01;2.50;;;1.53;;
9102;SDS011;4587;51.434;6.788;2023-04-03T16:45:27;2.70;;;1.17;;
9102;SDS011;4587;51.434;6.788;2023-04-03T16:47:53;5.57;;;1.47;;
9102;SDS011;4587;51.434;6.788;2023-04-03T16:50:18;3.77;;;1.60;;
9102;SDS011;4587;51.434;6.788;2023-04-03T16:52:47;2.77;;;1.40;;
9102;SDS011;4587;51.434;6.788;2023-04-03T16:55:13;3.23;;;1.67;;
9102;SDS011;4587;51.434;6.788;2023-04-03T16:57:39;3.27;;;1.50;;
9102;SDS011;4587;51.434;6.788;2023-04-03T17:00:05;3.20;;;1.60;;
9102;SDS011;4587;51.434;6.788;2023-04-03T17:02:32;3.07;;;1.30;;
9102;SDS011;4587;51.434;6.788;2023-04-03T17:04:58;3.77;;;1.73;;
9102;SDS011;4587;51.434;6.788;2023-04-03T17:07:24;2.70;;;1.50;;
9102;SDS011;4587;51.434;6.788;2023-04-03T17:09:50;3.37;;;1.50;;